createdAt,value
2022-11-05T00:01:19.463Z,67.80
2022-11-05T00:04:06.256Z,64.50
2022-11-05T00:06:52.952Z,69.20
2022-11-05T00:09:29.860Z,67.20
2022-11-05T00:12:22.171Z,71.40
2022-11-05T00:15:08.705Z,76.00
2022-11-05T00:17:36.928Z,76.50
2022-11-05T00:20:06.506Z,79.30
2022-11-05T00:22:53.062Z,80.30
2022-11-05T00:25:22.157Z,84.30
2022-11-05T00:27:52.340Z,79.40
2022-11-05T00:30:24.286Z,81.20
2022-11-05T00:32:53.368Z,74.80
2022-11-05T00:35:22.602Z,83.00
2022-11-05T00:37:53.573Z,85.90
2022-11-05T00:40:21.423Z,75.80
2022-11-05T00:43:08.286Z,75.60
2022-11-05T00:48:24.749Z,72.90
2022-11-05T00:50:52.705Z,71.30
2022-11-05T00:53:20.695Z,85.30
2022-11-05T00:55:48.599Z,75.80
2022-11-05T00:58:19.055Z,71.80
2022-11-05T01:00:52.635Z,69.50
2022-11-05T01:03:24.469Z,70.10
2022-11-05T01:05:55.912Z,71.60
2022-11-05T01:08:26.805Z,67.20
2022-11-05T01:10:57.779Z,68.60
2022-11-05T01:13:30.257Z,65.60
2022-11-05T01:15:58.154Z,69.80
2022-11-05T01:18:26.066Z,71.00
2022-11-05T01:20:54.027Z,65.70
2022-11-05T01:23:22.212Z,62.80
2022-11-05T01:25:50.367Z,66.00
2022-11-05T01:28:18.309Z,57.00
2022-11-05T01:30:46.214Z,61.10
2022-11-05T01:33:14.347Z,61.60
2022-11-05T01:35:42.662Z,57.10
2022-11-05T01:38:10.641Z,60.30
2022-11-05T01:40:42.632Z,65.90
2022-11-05T01:43:16.070Z,66.60
2022-11-05T01:45:47.895Z,67.70
2022-11-05T01:48:23.976Z,62.70
2022-11-05T01:51:01.340Z,58.60
2022-11-05T01:53:49.926Z,63.20
2022-11-05T01:56:24.901Z,65.90
2022-11-05T01:58:57.956Z,69.10
2022-11-05T02:01:26.128Z,59.40
2022-11-05T02:03:59.801Z,59.30
2022-11-05T02:06:30.417Z,68.90
2022-11-05T02:09:13.405Z,56.50
2022-11-05T02:11:41.426Z,60.30
2022-11-05T02:14:09.453Z,63.90
2022-11-05T02:16:40.431Z,61.30
2022-11-05T02:19:23.453Z,59.40
2022-11-05T02:22:08.994Z,59.80
2022-11-05T02:24:45.927Z,59.90
2022-11-05T02:27:29.524Z,58.60
2022-11-05T02:30:03.654Z,59.00
2022-11-05T02:32:40.862Z,60.50
2022-11-05T02:35:35.206Z,62.30
2022-11-05T02:38:07.330Z,61.70
2022-11-05T02:40:54.185Z,59.10
2022-11-05T02:43:51.777Z,63.40
2022-11-05T02:49:13.388Z,65.30
2022-11-05T02:51:55.607Z,66.90
2022-11-05T02:54:35.359Z,63.80
2022-11-05T02:57:04.938Z,63.20
2022-11-05T02:59:32.854Z,58.90
2022-11-05T03:02:26.690Z,61.30
2022-11-05T03:04:54.890Z,68.30
2022-11-05T03:07:44.623Z,60.90
2022-11-05T03:10:43.330Z,67.80
2022-11-05T03:13:22.593Z,58.20
2022-11-05T03:15:55.713Z,56.00
2022-11-05T03:18:43.374Z,54.00
2022-11-05T03:21:37.657Z,60.30
2022-11-05T03:24:34.266Z,58.50
2022-11-05T03:27:13.568Z,53.30
2022-11-05T03:29:49.147Z,60.80
2022-11-05T03:32:20.744Z,55.50
2022-11-05T03:34:56.797Z,52.60
2022-11-05T03:37:28.704Z,52.20
2022-11-05T03:40:00.515Z,56.30
2022-11-05T03:42:34.673Z,51.10
2022-11-05T03:45:08.693Z,54.60
2022-11-05T03:47:41.177Z,52.30
2022-11-05T03:50:59.892Z,59.70
2022-11-05T03:53:32.298Z,54.40
2022-11-05T03:56:10.634Z,52.50
2022-11-05T03:58:44.204Z,58.10
2022-11-05T04:01:12.597Z,54.20
2022-11-05T04:03:40.495Z,53.60
2022-11-05T04:06:29.223Z,56.60
2022-11-05T04:09:15.854Z,55.20
2022-11-05T04:12:02.311Z,53.50
2022-11-05T04:14:31.163Z,51.20
2022-11-05T04:17:09.734Z,49.80
2022-11-05T04:20:01.980Z,52.00
2022-11-05T04:22:54.032Z,49.80
2022-11-05T04:25:22.839Z,56.90
2022-11-05T04:27:51.628Z,50.70
2022-11-05T04:30:20.590Z,56.40
2022-11-05T04:32:58.691Z,56.00
2022-11-05T04:35:28.987Z,55.80
2022-11-05T04:37:57.078Z,60.00
2022-11-05T04:40:25.944Z,54.10
2022-11-05T04:42:55.681Z,56.70
2022-11-05T04:45:25.445Z,64.10
2022-11-05T04:47:53.474Z,59.70
2022-11-05T04:50:21.912Z,56.40
2022-11-05T04:52:49.867Z,63.50
2022-11-05T04:55:18.033Z,66.00
2022-11-05T04:57:51.298Z,68.60
2022-11-05T05:00:20.891Z,67.60
2022-11-05T05:02:49.414Z,61.20
2022-11-05T05:05:17.779Z,64.40
2022-11-05T05:07:45.757Z,63.80
2022-11-05T05:10:13.634Z,61.60
2022-11-05T05:12:41.667Z,70.80
2022-11-05T05:15:09.723Z,63.40
2022-11-05T05:17:37.687Z,60.20
2022-11-05T05:20:24.502Z,63.70
2022-11-05T05:22:55.778Z,55.20
2022-11-05T05:25:23.851Z,60.90
2022-11-05T05:27:51.945Z,56.60
2022-11-05T05:30:19.869Z,52.70
2022-11-05T05:32:47.743Z,57.90
2022-11-05T05:35:16.040Z,55.80
2022-11-05T05:37:44.345Z,58.00
2022-11-05T05:40:12.244Z,57.50
2022-11-05T05:42:43.105Z,54.60
2022-11-05T05:45:12.792Z,56.90
2022-11-05T05:47:40.675Z,55.50
2022-11-05T05:50:08.681Z,54.70
2022-11-05T05:52:36.553Z,59.30
2022-11-05T05:55:04.854Z,53.80
2022-11-05T05:57:34.151Z,60.80
2022-11-05T06:00:02.145Z,55.60
2022-11-05T06:02:40.057Z,53.60
2022-11-05T06:05:08.407Z,57.20
2022-11-05T06:07:37.556Z,54.50
2022-11-05T06:10:07.238Z,53.80
2022-11-05T06:12:35.304Z,54.20
2022-11-05T06:15:03.986Z,48.10
2022-11-05T06:17:33.077Z,58.60
2022-11-05T06:20:01.041Z,50.60
2022-11-05T06:22:28.918Z,49.00
2022-11-05T06:24:56.754Z,51.90
2022-11-05T06:27:24.729Z,53.70
2022-11-05T06:29:52.561Z,53.30
2022-11-05T06:32:20.426Z,54.30
2022-11-05T06:34:48.544Z,50.50
2022-11-05T06:37:16.526Z,46.40
2022-11-05T06:39:44.686Z,56.40
2022-11-05T06:42:18.488Z,53.40
2022-11-05T06:44:47.269Z,51.60
2022-11-05T06:47:15.124Z,52.30
2022-11-05T06:49:43.009Z,56.90
2022-11-05T06:52:11.184Z,54.20
2022-11-05T06:54:40.185Z,58.80
2022-11-05T06:57:12.416Z,60.00
2022-11-05T06:59:40.758Z,55.90
2022-11-05T07:02:12.644Z,58.40
2022-11-05T07:04:40.567Z,51.80
2022-11-05T07:07:08.513Z,53.80
2022-11-05T07:09:42.678Z,46.70
2022-11-05T07:12:10.562Z,46.60
2022-11-05T07:14:38.438Z,53.70
2022-11-05T07:17:06.349Z,52.70
2022-11-05T07:19:34.311Z,48.70
2022-11-05T07:22:02.256Z,50.00
2022-11-05T07:24:30.193Z,53.50
2022-11-05T07:26:58.262Z,49.80
2022-11-05T07:29:26.137Z,51.30
2022-11-05T07:31:54.015Z,56.50
2022-11-05T07:34:21.886Z,47.10
2022-11-05T07:36:49.828Z,52.60
2022-11-05T07:39:17.728Z,50.40
2022-11-05T07:41:45.642Z,48.10
2022-11-05T07:44:14.481Z,47.50
2022-11-05T07:46:42.547Z,52.20
2022-11-05T07:49:10.480Z,54.80
2022-11-05T07:51:38.440Z,66.20
2022-11-05T07:54:06.456Z,67.30
2022-11-05T07:56:34.447Z,57.20
2022-11-05T07:59:02.696Z,53.90
2022-11-05T08:01:30.863Z,53.80
2022-11-05T08:03:58.977Z,55.50
2022-11-05T08:06:26.846Z,54.00
2022-11-05T08:08:54.797Z,53.20
2022-11-05T08:11:22.707Z,52.40
2022-11-05T08:13:50.571Z,55.40
2022-11-05T08:16:18.525Z,50.50
2022-11-05T08:18:46.995Z,51.50
2022-11-05T08:21:15.015Z,53.50
2022-11-05T08:23:43.081Z,48.50
2022-11-05T08:26:10.952Z,52.20
2022-11-05T08:28:39.001Z,45.10
2022-11-05T08:31:06.877Z,40.80
2022-11-05T08:33:35.071Z,42.90
2022-11-05T08:36:04.633Z,45.20
2022-11-05T08:38:32.653Z,40.50
2022-11-05T08:41:00.950Z,36.00
2022-11-05T08:43:28.873Z,37.10
2022-11-05T08:45:56.761Z,38.20
2022-11-05T08:48:24.748Z,39.40
2022-11-05T08:50:52.703Z,42.00
2022-11-05T08:53:20.696Z,38.70
2022-11-05T08:55:50.172Z,37.60
2022-11-05T08:58:20.230Z,38.80
2022-11-05T09:00:49.639Z,44.00
2022-11-05T09:03:18.045Z,40.40
2022-11-05T09:05:46.743Z,49.10
2022-11-05T09:08:17.101Z,43.50
2022-11-05T09:10:47.063Z,45.60
2022-11-05T09:13:19.391Z,45.00
2022-11-05T09:15:49.481Z,39.10
2022-11-05T09:18:19.035Z,45.20
2022-11-05T09:20:47.371Z,50.70
2022-11-05T09:23:16.273Z,52.00
2022-11-05T09:25:44.786Z,44.80
2022-11-05T09:28:18.329Z,45.80
2022-11-05T09:30:48.731Z,55.90
2022-11-05T09:33:19.000Z,54.60
2022-11-05T09:35:47.527Z,44.80
2022-11-05T09:38:15.450Z,49.90
2022-11-05T09:41:01.012Z,49.00
2022-11-05T09:43:44.686Z,49.40
2022-11-05T09:46:19.332Z,53.10
2022-11-05T09:48:52.358Z,49.30
2022-11-05T09:51:24.104Z,51.60
2022-11-05T09:53:53.582Z,48.10
2022-11-05T09:56:26.922Z,39.10
2022-11-05T09:59:00.537Z,38.40
2022-11-05T10:01:35.442Z,43.60
2022-11-05T10:04:13.165Z,41.50
2022-11-05T10:06:48.865Z,33.30
2022-11-05T10:09:28.141Z,30.70
2022-11-05T10:12:06.505Z,37.80
2022-11-05T10:14:40.531Z,39.60
2022-11-05T10:17:25.147Z,32.40
2022-11-05T10:20:20.670Z,38.80
2022-11-05T10:22:58.652Z,32.10
2022-11-05T10:25:32.054Z,31.20
2022-11-05T10:28:00.461Z,29.70
2022-11-05T10:30:28.379Z,30.10
2022-11-05T10:32:59.599Z,34.00
2022-11-05T10:35:30.809Z,33.80
2022-11-05T10:37:58.705Z,44.60
2022-11-05T10:40:38.762Z,36.00
2022-11-05T10:43:15.894Z,32.40
2022-11-05T10:45:59.775Z,39.70
2022-11-05T10:48:34.691Z,36.80
2022-11-05T10:51:07.206Z,37.50
2022-11-05T10:53:38.609Z,38.20
2022-11-05T10:56:32.480Z,40.50
2022-11-05T10:59:00.973Z,42.00
2022-11-05T11:01:30.380Z,36.60
2022-11-05T11:04:32.256Z,37.50
2022-11-05T11:07:03.723Z,36.40
2022-11-05T11:09:35.993Z,32.00
2022-11-05T11:12:21.746Z,31.60
2022-11-05T11:15:12.455Z,34.20
2022-11-05T11:17:40.854Z,41.70
2022-11-05T11:20:17.961Z,35.70
2022-11-05T11:23:13.000Z,37.50
2022-11-05T11:25:47.155Z,34.20
2022-11-05T11:28:20.251Z,33.30
2022-11-05T11:31:04.244Z,36.90
2022-11-05T11:33:33.841Z,30.10
2022-11-05T11:36:02.266Z,31.40
2022-11-05T11:38:33.038Z,33.40
2022-11-05T11:41:30.878Z,29.30
2022-11-05T11:44:11.513Z,31.40
2022-11-05T11:46:40.049Z,32.60
2022-11-05T11:49:32.688Z,33.40
2022-11-05T11:52:04.963Z,76.20
2022-11-05T11:54:35.070Z,168.70
2022-11-05T11:57:03.607Z,85.70
2022-11-05T12:00:01.816Z,38.90
2022-11-05T12:02:28.586Z,50.90
2022-11-05T12:05:10.388Z,37.90
2022-11-05T12:07:44.100Z,35.30
2022-11-05T12:10:18.148Z,39.80
2022-11-05T12:13:01.278Z,39.60
2022-11-05T12:15:52.039Z,33.20
2022-11-05T12:18:27.271Z,40.60
2022-11-05T12:21:07.438Z,29.60
2022-11-05T12:23:44.374Z,27.90
2022-11-05T12:26:22.313Z,26.20
2022-11-05T12:29:17.486Z,29.80
2022-11-05T12:32:01.567Z,31.50
2022-11-05T12:34:35.551Z,27.10
2022-11-05T12:37:24.938Z,27.10
2022-11-05T12:40:14.673Z,27.40
2022-11-05T12:43:12.110Z,39.30
2022-11-05T12:45:45.949Z,32.70
2022-11-05T12:48:57.109Z,30.60
2022-11-05T12:51:51.404Z,29.60
2022-11-05T12:54:36.157Z,34.20
2022-11-05T12:57:05.823Z,34.40
2022-11-05T12:59:43.888Z,33.50
2022-11-05T13:02:33.375Z,41.70
2022-11-05T13:05:16.479Z,34.70
2022-11-05T13:07:54.300Z,35.00
2022-11-05T13:10:28.174Z,35.70
2022-11-05T13:13:02.823Z,35.60
2022-11-05T13:15:40.231Z,34.80
2022-11-05T13:18:16.662Z,33.80
2022-11-05T13:20:51.220Z,35.80
2022-11-05T13:23:27.747Z,34.90
2022-11-05T13:28:43.173Z,38.80
2022-11-05T13:31:15.110Z,39.80
2022-11-05T13:33:46.544Z,40.00
2022-11-05T13:36:44.767Z,38.50
2022-11-05T13:39:26.166Z,42.60
2022-11-05T13:42:13.082Z,41.30
2022-11-05T13:44:41.005Z,43.40
2022-11-05T13:47:30.663Z,38.40
2022-11-05T13:50:20.623Z,41.30
2022-11-05T13:53:26.296Z,40.70
2022-11-05T13:56:03.367Z,44.00
2022-11-05T13:59:10.066Z,47.50
2022-11-05T14:02:18.994Z,45.20
2022-11-05T14:05:00.704Z,42.90
2022-11-05T14:07:33.324Z,45.10
2022-11-05T14:10:16.666Z,46.20
2022-11-05T14:12:49.796Z,42.90
2022-11-05T14:15:22.178Z,43.50
2022-11-05T14:18:04.069Z,46.20
2022-11-05T14:20:31.957Z,45.10
2022-11-05T14:23:24.982Z,49.50
2022-11-05T14:26:22.531Z,40.30
2022-11-05T14:29:11.581Z,38.70
2022-11-05T14:32:07.679Z,44.10
2022-11-05T14:34:43.459Z,44.10
2022-11-05T14:37:11.889Z,38.80
2022-11-05T14:39:40.996Z,48.70
2022-11-05T14:42:18.302Z,43.70
2022-11-05T14:45:24.543Z,52.90
2022-11-05T14:48:05.320Z,44.40
2022-11-05T14:50:39.440Z,42.10
2022-11-05T14:53:37.573Z,41.30
2022-11-05T14:56:19.039Z,38.70
2022-11-05T14:58:46.973Z,50.40
2022-11-05T15:01:15.905Z,49.30
2022-11-05T15:04:00.995Z,43.50
2022-11-05T15:06:36.616Z,50.70
2022-11-05T15:09:16.164Z,48.80
2022-11-05T15:12:04.446Z,52.90
2022-11-05T15:14:42.419Z,49.50
2022-11-05T15:17:21.484Z,53.00
2022-11-05T15:19:50.744Z,53.50
2022-11-05T15:22:29.091Z,59.80
2022-11-05T15:24:57.418Z,57.40
2022-11-05T15:27:46.550Z,56.50
2022-11-05T15:30:23.028Z,55.50
2022-11-05T15:32:51.842Z,56.00
2022-11-05T15:35:23.589Z,50.80
2022-11-05T15:37:57.303Z,62.50
2022-11-05T15:40:33.212Z,52.60
2022-11-05T15:43:19.764Z,49.10
2022-11-05T15:46:04.963Z,53.90
2022-11-05T15:48:33.923Z,48.40
2022-11-05T15:51:02.209Z,57.90
2022-11-05T15:56:34.497Z,69.50
2022-11-05T15:59:16.111Z,63.00
2022-11-05T16:01:51.880Z,54.60
2022-11-05T16:04:24.679Z,52.50
2022-11-05T16:06:56.071Z,49.00
2022-11-05T16:09:25.958Z,46.20
2022-11-05T16:12:11.647Z,47.20
2022-11-05T16:14:40.494Z,48.80
2022-11-05T16:17:20.453Z,46.70
2022-11-05T16:19:49.616Z,50.00
2022-11-05T16:22:18.634Z,49.60
2022-11-05T16:24:47.223Z,52.80
2022-11-05T16:27:19.851Z,53.40
2022-11-05T16:29:56.547Z,59.50
2022-11-05T16:32:31.733Z,55.50
2022-11-05T16:35:03.020Z,58.20
2022-11-05T16:37:39.818Z,57.00
2022-11-05T16:40:15.455Z,58.60
2022-11-05T16:42:45.529Z,60.40
2022-11-05T16:45:15.528Z,64.20
2022-11-05T16:47:44.939Z,56.20
2022-11-05T16:50:15.060Z,59.50
2022-11-05T16:52:45.193Z,55.00
2022-11-05T16:55:14.913Z,60.40
2022-11-05T16:57:46.711Z,52.40
2022-11-05T17:00:16.927Z,51.50
2022-11-05T17:02:45.974Z,57.70
2022-11-05T17:05:30.965Z,59.10
2022-11-05T17:08:00.697Z,54.60
2022-11-05T17:10:28.764Z,49.60
2022-11-05T17:12:57.000Z,60.70
2022-11-05T17:15:29.638Z,59.20
2022-11-05T17:17:59.085Z,56.90
2022-11-05T17:20:36.482Z,53.70
2022-11-05T17:23:19.762Z,53.60
2022-11-05T17:26:09.812Z,66.50
2022-11-05T17:28:38.715Z,59.90
2022-11-05T17:31:09.171Z,55.90
2022-11-05T17:33:37.170Z,56.90
2022-11-05T17:36:10.740Z,54.20
2022-11-05T17:38:39.279Z,57.10
2022-11-05T17:41:15.797Z,63.10
2022-11-05T17:43:44.171Z,54.60
2022-11-05T17:46:14.631Z,61.80
2022-11-05T17:48:42.937Z,54.70
2022-11-05T17:51:15.202Z,47.10
2022-11-05T17:53:44.670Z,42.10
2022-11-05T17:56:22.156Z,40.30
2022-11-05T17:58:55.662Z,42.50
2022-11-05T18:01:30.330Z,50.50
2022-11-05T18:04:02.447Z,44.90
2022-11-05T18:09:05.750Z,43.70
2022-11-05T18:11:35.527Z,44.70
2022-11-05T18:14:03.990Z,52.20
2022-11-05T18:16:32.166Z,45.10
2022-11-05T18:19:00.228Z,44.90
2022-11-05T18:21:28.396Z,46.10
2022-11-05T18:23:56.564Z,52.10
2022-11-05T18:26:24.453Z,44.80
2022-11-05T18:28:52.420Z,49.90
2022-11-05T18:31:21.913Z,47.30
2022-11-05T18:33:50.726Z,48.50
2022-11-05T18:36:21.204Z,51.40
2022-11-05T18:38:49.924Z,48.90
2022-11-05T18:41:19.169Z,52.70
2022-11-05T18:43:47.303Z,51.10
2022-11-05T18:46:43.101Z,44.00
2022-11-05T18:49:04.291Z,46.30
2022-11-05T18:51:32.728Z,48.70
2022-11-05T18:54:00.845Z,46.00
2022-11-05T18:56:28.957Z,50.50
2022-11-05T18:59:22.049Z,48.70
2022-11-05T19:01:45.599Z,46.70
2022-11-05T19:04:14.146Z,46.90
2022-11-05T19:06:42.687Z,44.50
2022-11-05T19:09:12.067Z,49.20
2022-11-05T19:11:41.030Z,53.30
2022-11-05T19:14:09.259Z,41.70
2022-11-05T19:16:37.282Z,50.50
2022-11-05T19:19:08.212Z,49.50
2022-11-05T19:21:36.075Z,50.10
2022-11-05T19:24:04.603Z,51.90
2022-11-05T19:26:32.923Z,44.70
2022-11-05T19:29:03.036Z,47.40
2022-11-05T19:31:32.388Z,47.00
2022-11-05T19:34:03.110Z,52.30
2022-11-05T19:36:32.888Z,51.50
2022-11-05T19:39:04.445Z,47.80
2022-11-05T19:41:32.284Z,47.30
2022-11-05T19:44:01.870Z,53.90
2022-11-05T19:46:31.046Z,54.60
2022-11-05T19:49:02.263Z,58.70
2022-11-05T19:51:31.817Z,56.30
2022-11-05T19:54:01.641Z,63.50
2022-11-05T19:56:32.130Z,55.30
2022-11-05T19:59:00.666Z,56.30
2022-11-05T20:01:30.068Z,54.10
2022-11-05T20:03:59.553Z,64.60
2022-11-05T20:06:32.070Z,59.70
2022-11-05T20:11:54.618Z,59.80
2022-11-05T20:14:24.894Z,58.80
2022-11-05T20:16:53.583Z,60.70
2022-11-05T20:19:22.813Z,65.70
2022-11-05T20:21:50.951Z,58.60
2022-11-05T20:24:24.694Z,56.40
2022-11-05T20:26:55.389Z,61.90
2022-11-05T20:29:29.093Z,55.60
2022-11-05T20:32:02.320Z,56.80
2022-11-05T20:34:32.071Z,64.20
2022-11-05T20:37:00.550Z,60.00
2022-11-05T20:39:28.426Z,60.30
2022-11-05T20:41:56.932Z,62.90
2022-11-05T20:44:24.899Z,59.10
2022-11-05T20:46:52.854Z,61.90
2022-11-05T20:49:25.166Z,55.70
2022-11-05T20:51:54.489Z,60.10
2022-11-05T20:54:22.616Z,60.90
2022-11-05T20:56:51.015Z,52.60
2022-11-05T20:59:19.586Z,59.50
2022-11-05T21:01:47.613Z,65.90
2022-11-05T21:04:15.621Z,59.20
2022-11-05T21:06:43.606Z,59.50
2022-11-05T21:09:11.508Z,59.10
2022-11-05T21:11:57.802Z,60.30
2022-11-05T21:14:25.704Z,55.40
2022-11-05T21:16:53.614Z,59.20
2022-11-05T21:19:23.929Z,59.30
2022-11-05T21:21:51.901Z,58.60
2022-11-05T21:24:19.819Z,57.00
2022-11-05T21:26:50.080Z,55.70
2022-11-05T21:29:19.149Z,61.90
2022-11-05T21:31:47.677Z,56.80
2022-11-05T21:34:16.944Z,56.80
2022-11-05T21:36:45.313Z,63.50
2022-11-05T21:39:14.048Z,59.50
2022-11-05T21:41:42.816Z,58.10
2022-11-05T21:44:11.284Z,66.00
2022-11-05T21:46:39.447Z,55.30
2022-11-05T21:49:07.455Z,57.60
2022-11-05T21:51:53.762Z,59.80
2022-11-05T21:54:40.098Z,50.70
2022-11-05T21:57:33.278Z,59.40
2022-11-05T22:00:03.852Z,59.90
2022-11-05T22:02:32.328Z,61.00
2022-11-05T22:05:00.479Z,64.50
2022-11-05T22:07:37.940Z,62.50
2022-11-05T22:10:15.809Z,58.50
2022-11-05T22:12:44.962Z,58.30
2022-11-05T22:15:13.782Z,65.10
2022-11-05T22:17:46.602Z,58.70
2022-11-05T22:20:15.937Z,54.10
2022-11-05T22:22:44.871Z,56.30
2022-11-05T22:25:14.414Z,57.30
2022-11-05T22:27:44.066Z,55.40
2022-11-05T22:30:13.788Z,55.30
2022-11-05T22:32:42.034Z,48.80
2022-11-05T22:35:10.429Z,59.50
2022-11-05T22:37:38.474Z,51.00
2022-11-05T22:40:06.941Z,50.80
2022-11-05T22:42:34.946Z,63.70
2022-11-05T22:45:03.319Z,49.10
2022-11-05T22:47:31.186Z,58.00
2022-11-05T22:49:59.412Z,53.10
2022-11-05T22:52:27.552Z,49.50
2022-11-05T22:54:55.556Z,51.20
2022-11-05T22:57:23.589Z,53.30
2022-11-05T22:59:51.532Z,47.50
2022-11-05T23:02:19.948Z,42.10
2022-11-05T23:04:49.620Z,47.70
2022-11-05T23:07:36.726Z,46.50
2022-11-05T23:12:53.229Z,51.00
2022-11-05T23:15:39.475Z,46.20
2022-11-05T23:18:28.104Z,53.50
2022-11-05T23:21:17.953Z,49.90
2022-11-05T23:24:05.038Z,48.30
2022-11-05T23:26:52.208Z,44.00
2022-11-05T23:32:09.017Z,54.80
2022-11-05T23:34:37.567Z,62.00
2022-11-05T23:37:25.246Z,50.10
2022-11-05T23:39:53.323Z,55.70
2022-11-05T23:42:40.225Z,59.30
2022-11-05T23:45:27.643Z,60.50
2022-11-05T23:48:14.787Z,52.40
2022-11-05T23:50:46.086Z,56.90
2022-11-05T23:53:14.045Z,52.60
2022-11-05T23:55:42.574Z,53.40
2022-11-05T23:58:11.032Z,47.60
